createdAt,value
2023-03-26T00:04:39.077Z,6.97
2023-03-26T00:09:44.276Z,6.99
2023-03-26T00:14:49.113Z,6.98
2023-03-26T00:19:54.586Z,6.95
2023-03-26T00:25:00.095Z,6.93
2023-03-26T00:30:04.989Z,6.91
2023-03-26T00:35:09.930Z,6.90
2023-03-26T00:40:14.356Z,6.87
2023-03-26T00:45:23.056Z,6.85
2023-03-26T00:50:26.795Z,6.84
2023-03-26T00:55:34.962Z,6.84
2023-03-26T01:00:49.579Z,6.80
2023-03-26T01:06:10.570Z,6.77
2023-03-26T01:11:21.583Z,6.75
2023-03-26T01:16:28.709Z,6.73
2023-03-26T01:21:34.820Z,6.74
2023-03-26T01:26:48.469Z,6.76
2023-03-26T01:32:33.881Z,6.75
2023-03-26T01:37:52.788Z,6.75
2023-03-26T01:43:19.107Z,6.76
2023-03-26T01:48:35.362Z,6.74
2023-03-26T01:53:46.313Z,6.73
2023-03-26T01:59:04.229Z,6.71
2023-03-26T02:04:20.072Z,6.64
2023-03-26T02:09:32.242Z,6.62
2023-03-26T02:14:38.191Z,6.60
2023-03-26T02:19:43.100Z,6.61
2023-03-26T02:24:47.294Z,6.62
2023-03-26T02:29:50.861Z,6.60
2023-03-26T02:34:54.798Z,6.60
2023-03-26T02:39:59.186Z,6.61
2023-03-26T02:45:03.802Z,6.61
2023-03-26T02:50:09.220Z,6.61
2023-03-26T02:55:12.815Z,6.60
2023-03-26T03:00:17.455Z,6.58
2023-03-26T03:05:21.692Z,6.58
2023-03-26T03:10:26.642Z,6.55
2023-03-26T03:15:30.261Z,6.50
2023-03-26T03:20:35.497Z,6.49
2023-03-26T03:25:41.503Z,6.45
2023-03-26T03:30:45.169Z,6.46
2023-03-26T03:35:49.982Z,6.44
2023-03-26T03:40:55.765Z,6.41
2023-03-26T03:46:00.751Z,6.40
2023-03-26T03:51:05.742Z,6.43
2023-03-26T03:56:15.971Z,6.49
2023-03-26T04:01:23.112Z,6.50
2023-03-26T04:06:30.519Z,6.52
2023-03-26T04:11:34.074Z,6.53
2023-03-26T04:16:37.862Z,6.55
2023-03-26T04:21:43.070Z,6.52
2023-03-26T04:26:48.357Z,6.47
2023-03-26T04:31:59.140Z,6.43
2023-03-26T04:37:03.522Z,6.42
2023-03-26T04:42:10.431Z,6.42
2023-03-26T04:47:14.287Z,6.40
2023-03-26T04:52:18.009Z,6.38
2023-03-26T04:57:30.734Z,6.35
2023-03-26T05:02:35.129Z,6.32
2023-03-26T05:07:38.566Z,6.31
2023-03-26T05:12:42.827Z,6.34
2023-03-26T05:17:47.123Z,6.41
2023-03-26T05:22:51.250Z,6.49
2023-03-26T05:27:54.826Z,6.60
2023-03-26T05:32:58.060Z,6.65
2023-03-26T05:38:03.096Z,6.67
2023-03-26T05:43:06.684Z,6.78
2023-03-26T05:48:10.254Z,6.88
2023-03-26T05:53:13.458Z,6.93
2023-03-26T05:58:17.542Z,7.01
2023-03-26T06:03:23.506Z,7.03
2023-03-26T06:08:27.985Z,7.04
2023-03-26T06:13:31.732Z,7.08
2023-03-26T06:18:35.664Z,7.12
2023-03-26T06:23:40.248Z,7.46
2023-03-26T06:28:48.901Z,7.66
2023-03-26T06:33:53.518Z,7.89
2023-03-26T06:38:57.104Z,8.10
2023-03-26T06:44:01.177Z,8.09
2023-03-26T06:49:04.701Z,8.06
2023-03-26T06:54:08.192Z,8.06
2023-03-26T06:59:12.994Z,8.20
2023-03-26T07:04:18.100Z,8.36
2023-03-26T07:09:26.738Z,8.66
2023-03-26T07:14:33.470Z,9.01
2023-03-26T07:19:37.860Z,9.21
2023-03-26T07:24:43.516Z,9.15
2023-03-26T07:30:04.930Z,9.03
2023-03-26T07:35:31.125Z,9.16
2023-03-26T07:41:07.257Z,9.35
2023-03-26T07:46:13.804Z,9.61
2023-03-26T07:51:21.327Z,9.97
2023-03-26T07:56:57.999Z,9.94
2023-03-26T08:02:45.088Z,9.88
2023-03-26T08:08:11.350Z,9.96
2023-03-26T08:13:40.050Z,10.00
2023-03-26T08:18:54.800Z,9.89
2023-03-26T08:24:14.623Z,9.75
2023-03-26T08:29:37.693Z,9.73
2023-03-26T08:34:42.841Z,10.04
2023-03-26T08:39:47.161Z,10.22
2023-03-26T08:45:13.166Z,10.55
2023-03-26T08:50:36.605Z,11.13
2023-03-26T08:55:52.125Z,11.64
2023-03-26T09:01:02.476Z,11.71
2023-03-26T09:06:23.622Z,11.70
2023-03-26T09:11:40.310Z,11.90
2023-03-26T09:17:01.217Z,11.79
2023-03-26T09:22:29.131Z,11.50
2023-03-26T09:27:52.281Z,11.34
2023-03-26T09:33:22.356Z,11.45
2023-03-26T09:38:44.204Z,12.14
2023-03-26T09:44:09.916Z,12.48
2023-03-26T09:49:17.839Z,12.65
2023-03-26T09:55:04.449Z,12.69
2023-03-26T10:00:43.854Z,12.79
2023-03-26T10:06:12.960Z,12.92
2023-03-26T10:11:43.776Z,12.92
2023-03-26T10:16:58.173Z,12.84
2023-03-26T10:22:50.271Z,12.86
2023-03-26T10:27:58.402Z,12.82
2023-03-26T10:33:18.486Z,12.91
2023-03-26T10:38:46.161Z,12.80
2023-03-26T10:44:12.145Z,12.32
2023-03-26T10:49:57.814Z,11.82
2023-03-26T10:55:21.546Z,11.34
2023-03-26T11:00:31.174Z,10.98
2023-03-26T11:05:49.396Z,10.82
2023-03-26T11:11:22.201Z,11.07
2023-03-26T11:16:58.205Z,11.39
2023-03-26T11:22:24.473Z,11.60
2023-03-26T11:27:44.985Z,11.63
2023-03-26T11:32:54.794Z,11.83
2023-03-26T11:38:07.010Z,11.91
2023-03-26T11:43:16.457Z,12.00
2023-03-26T11:49:00.561Z,11.91
2023-03-26T11:54:12.171Z,12.12
2023-03-26T11:59:25.074Z,12.43
2023-03-26T12:04:36.576Z,12.34
2023-03-26T12:09:51.895Z,12.13
2023-03-26T12:14:56.556Z,11.79
2023-03-26T12:20:02.917Z,11.49
2023-03-26T12:25:21.515Z,11.31
2023-03-26T12:30:31.106Z,11.30
2023-03-26T12:35:36.275Z,11.57
2023-03-26T12:40:43.798Z,11.71
2023-03-26T12:47:54.475Z,11.59
2023-03-26T12:51:37.019Z,11.46
2023-03-26T12:56:48.351Z,11.71
2023-03-26T13:02:39.851Z,11.87
2023-03-26T13:08:18.291Z,11.92
2023-03-26T13:13:35.137Z,11.92
2023-03-26T13:19:09.150Z,11.80
2023-03-26T13:24:37.751Z,11.77
2023-03-26T13:29:41.708Z,11.79
2023-03-26T13:34:54.145Z,11.71
2023-03-26T13:40:05.164Z,11.62
2023-03-26T13:45:18.979Z,11.58
2023-03-26T13:50:39.412Z,11.65
2023-03-26T13:55:50.694Z,11.66
2023-03-26T14:01:19.382Z,11.65
2023-03-26T14:06:46.965Z,11.86
2023-03-26T14:12:49.220Z,12.10
2023-03-26T14:18:31.774Z,12.12
2023-03-26T14:23:51.943Z,12.00
2023-03-26T14:29:38.690Z,11.94
2023-03-26T14:35:17.963Z,11.90
2023-03-26T14:40:30.817Z,11.69
2023-03-26T14:46:09.566Z,11.60
2023-03-26T14:52:02.136Z,11.53
2023-03-26T14:57:37.617Z,11.48
2023-03-26T15:02:45.137Z,11.36
2023-03-26T15:08:37.923Z,11.30
2023-03-26T15:13:45.343Z,11.23
2023-03-26T15:19:08.600Z,11.36
2023-03-26T15:24:29.256Z,11.51
2023-03-26T15:29:49.889Z,11.54
2023-03-26T15:35:20.180Z,11.58
2023-03-26T15:41:25.921Z,11.38
2023-03-26T15:47:11.817Z,11.16
2023-03-26T15:52:49.423Z,11.01
2023-03-26T15:58:03.261Z,10.81
2023-03-26T16:03:26.108Z,10.61
2023-03-26T16:08:53.632Z,10.43
2023-03-26T16:14:20.086Z,10.24
2023-03-26T16:19:53.028Z,10.04
2023-03-26T16:25:26.937Z,9.88
2023-03-26T16:30:34.428Z,9.74
2023-03-26T16:36:06.997Z,9.61
2023-03-26T16:41:46.562Z,9.49
2023-03-26T16:47:00.718Z,9.38
2023-03-26T16:52:09.814Z,9.30
2023-03-26T16:57:24.085Z,9.21
2023-03-26T17:02:52.733Z,9.11
2023-03-26T17:08:36.352Z,8.95
2023-03-26T17:14:04.253Z,8.69
2023-03-26T17:19:17.764Z,8.47
2023-03-26T17:24:54.216Z,8.29
2023-03-26T17:30:34.988Z,8.07
2023-03-26T17:35:43.823Z,7.93
2023-03-26T17:41:17.111Z,7.86
2023-03-26T17:46:43.699Z,7.79
2023-03-26T17:52:03.206Z,7.66
2023-03-26T17:57:31.193Z,7.41
2023-03-26T18:02:49.242Z,7.26
2023-03-26T18:08:06.938Z,7.12
2023-03-26T18:13:56.055Z,6.90
2023-03-26T18:19:18.913Z,6.69
2023-03-26T18:24:42.258Z,6.59
2023-03-26T18:30:01.821Z,6.50
2023-03-26T18:35:22.416Z,6.40
2023-03-26T18:40:34.684Z,6.31
2023-03-26T18:45:39.995Z,6.25
2023-03-26T18:50:44.484Z,6.18
2023-03-26T18:55:51.186Z,6.11
2023-03-26T19:00:59.504Z,6.02
2023-03-26T19:06:09.027Z,5.92
2023-03-26T19:11:16.860Z,5.72
2023-03-26T19:16:30.269Z,5.62
2023-03-26T19:21:36.874Z,5.54
2023-03-26T19:26:42.067Z,5.39
2023-03-26T19:31:54.133Z,5.31
2023-03-26T19:37:06.276Z,5.21
2023-03-26T19:42:43.270Z,5.10
2023-03-26T19:48:03.682Z,4.99
2023-03-26T19:53:25.855Z,4.86
2023-03-26T19:58:30.239Z,4.77
2023-03-26T20:03:42.075Z,4.60
2023-03-26T20:08:51.466Z,4.45
2023-03-26T20:13:56.566Z,4.36
2023-03-26T20:19:05.787Z,4.31
2023-03-26T20:24:17.201Z,4.26
2023-03-26T20:29:21.195Z,4.20
2023-03-26T20:34:26.962Z,4.14
2023-03-26T20:39:30.729Z,4.12
2023-03-26T20:44:35.684Z,4.17
2023-03-26T20:49:40.532Z,4.17
2023-03-26T20:54:45.037Z,4.18
2023-03-26T20:59:50.759Z,4.21
2023-03-26T21:04:57.613Z,4.34
2023-03-26T21:10:06.223Z,4.47
2023-03-26T21:15:20.854Z,4.55
2023-03-26T21:20:33.326Z,4.57
2023-03-26T21:26:02.521Z,4.63
2023-03-26T21:31:09.110Z,4.68
2023-03-26T21:36:13.943Z,4.71
2023-03-26T21:41:25.208Z,4.74
2023-03-26T21:46:30.492Z,4.77
2023-03-26T21:51:35.182Z,4.72
2023-03-26T21:57:07.368Z,4.66
2023-03-26T22:02:31.164Z,4.64
2023-03-26T22:07:52.961Z,4.66
2023-03-26T22:12:59.460Z,4.70
2023-03-26T22:18:15.672Z,4.79
2023-03-26T22:23:20.640Z,4.87
2023-03-26T22:28:24.481Z,4.88
2023-03-26T22:33:28.323Z,4.89
2023-03-26T22:38:32.857Z,4.92
2023-03-26T22:43:38.927Z,5.00
2023-03-26T22:48:42.511Z,5.11
2023-03-26T22:53:47.957Z,5.18
2023-03-26T22:58:52.442Z,5.22
2023-03-26T23:03:58.616Z,5.20
2023-03-26T23:09:04.401Z,5.20
2023-03-26T23:14:09.244Z,5.28
2023-03-26T23:19:13.848Z,5.36
2023-03-26T23:24:21.224Z,5.40
2023-03-26T23:29:25.495Z,5.45
2023-03-26T23:34:30.081Z,5.51
2023-03-26T23:39:34.952Z,5.56
2023-03-26T23:44:41.218Z,5.57
2023-03-26T23:49:45.748Z,5.54
2023-03-26T23:54:50.592Z,5.50
2023-03-26T23:59:56.191Z,5.47
